Главная страница
METAR-TAF:

METAR-TAF

Аэропорты :

Векшё, Швеция

широта: 56-51N, долгота: 014-50E, высота над уровнем моря: 199 м

Текущие метеонаблюдения

Эта сводка был подготовлена 17 минут назад, в 02:50 UTC
Ветер 3 Узел от юго-западный
Температура 11°C
Влажность 94%
Давление 1018 hPa
Видимость: 0300 м
туман

METAR: ESMX 180250Z AUTO 22003KT 0300 R01/0900N R19/1200D FG OVC001/// 11/10 Q1018

Время: 05:07 (03:07 UTC)

Прогноз

Эта сводка был подготовлена 5 часа и 43 минут назад, в 21:24 UTC
Прогноз действительный с 17-го 21 UTC до 17-го 22 UTC
Ветер 4 Узел от южный
Видимость: 0100 м
туман
временами
С 17-го 21 UTC до 17-го 22 UTC
Видимость: 0400 м

TAF: ESMX 172124Z 1721/1722 18004KT 0100 FG NSC TEMPO 1721/1722 0400

Метеонаблюдения и прогнозы для более 4000 аэропортов (сводки METAR и TAF).

Имеющиеся станции представлены на карте желтыми и красными точками.

Чтобы увидеть название станции, наведите на нее мышь.

Затем щелкните, чтобы увидеть метеонаблюдения и метеопрогнозы.

Управление картой: чтобы увеличить масштаб, щелкните зеленые кнопки с черным крестиком; чтобы уменьшить масштаб, щелкните зеленую кнопку с тире; для просмотра соседних карт щелкайте зеленые стрелки.


METAR-TAF: